sensor_id;sensor_type;location;lat;lon;timestamp;pressure;altitude;pressure_sealevel;temperature;humidity
70684;BME280;58263;48.146;11.440;2023-10-19T00:00:04;94276.06;;;9.60;81.50
70684;BME280;58263;48.146;11.440;2023-10-19T00:02:53;94278.19;;;9.58;81.28
70684;BME280;58263;48.146;11.440;2023-10-19T00:05:20;94266.38;;;9.54;82.53
70684;BME280;58263;48.146;11.440;2023-10-19T00:07:45;94263.19;;;9.52;82.11
70684;BME280;58263;48.146;11.440;2023-10-19T00:10:11;94247.34;;;9.50;82.70
70684;BME280;58263;48.146;11.440;2023-10-19T00:12:41;94246.03;;;9.47;82.90
70684;BME280;58263;48.146;11.440;2023-10-19T00:15:06;94238.00;;;9.47;83.42
70684;BME280;58263;48.146;11.440;2023-10-19T00:17:34;94240.91;;;9.41;82.60
70684;BME280;58263;48.146;11.440;2023-10-19T00:19:59;94240.66;;;9.47;82.05
70684;BME280;58263;48.146;11.440;2023-10-19T00:23:03;94242.25;;;9.48;82.22
70684;BME280;58263;48.146;11.440;2023-10-19T00:25:31;94246.03;;;9.47;82.07
70684;BME280;58263;48.146;11.440;2023-10-19T00:28:00;94248.94;;;9.46;82.41
70684;BME280;58263;48.146;11.440;2023-10-19T00:30:27;94248.44;;;9.49;82.42
70684;BME280;58263;48.146;11.440;2023-10-19T00:32:56;94239.06;;;9.46;82.96
70684;BME280;58263;48.146;11.440;2023-10-19T00:35:22;94223.00;;;9.46;83.09
70684;BME280;58263;48.146;11.440;2023-10-19T00:37:59;94224.63;;;9.47;82.62
70684;BME280;58263;48.146;11.440;2023-10-19T00:40:50;94218.44;;;9.47;83.40
70684;BME280;58263;48.146;11.440;2023-10-19T00:43:26;94206.94;;;9.46;83.39
70684;BME280;58263;48.146;11.440;2023-10-19T00:45:51;94205.63;;;9.49;83.29
70684;BME280;58263;48.146;11.440;2023-10-19T00:48:17;94209.66;;;9.52;83.13
70684;BME280;58263;48.146;11.440;2023-10-19T00:50:43;94227.28;;;9.53;83.08
70684;BME280;58263;48.146;11.440;2023-10-19T00:53:09;94246.03;;;9.53;82.96
70684;BME280;58263;48.146;11.440;2023-10-19T00:55:38;94248.44;;;9.49;83.63
70684;BME280;58263;48.146;11.440;2023-10-19T00:58:04;94230.22;;;9.51;83.43
70684;BME280;58263;48.146;11.440;2023-10-19T01:00:35;94218.44;;;9.47;83.35
70684;BME280;58263;48.146;11.440;2023-10-19T01:03:10;94221.66;;;9.44;83.60
70684;BME280;58263;48.146;11.440;2023-10-19T01:05:35;94224.31;;;9.44;83.88
70684;BME280;58263;48.146;11.440;2023-10-19T01:08:02;94216.03;;;9.45;83.74
70684;BME280;58263;48.146;11.440;2023-10-19T01:10:39;94217.09;;;9.44;83.48
70684;BME280;58263;48.146;11.440;2023-10-19T01:13:05;94234.75;;;9.45;83.88
70684;BME280;58263;48.146;11.440;2023-10-19T01:15:32;94230.47;;;9.44;84.00
70684;BME280;58263;48.146;11.440;2023-10-19T01:18:02;94221.91;;;9.42;83.69
70684;BME280;58263;48.146;11.440;2023-10-19T01:20:31;94223.50;;;9.43;83.91
70684;BME280;58263;48.146;11.440;2023-10-19T01:22:58;94224.03;;;9.40;83.75
70684;BME280;58263;48.146;11.440;2023-10-19T01:25:45;94203.44;;;9.41;84.15
70684;BME280;58263;48.146;11.440;2023-10-19T01:28:33;94213.31;;;9.40;84.00
70684;BME280;58263;48.146;11.440;2023-10-19T01:31:14;94233.94;;;9.40;84.34
70684;BME280;58263;48.146;11.440;2023-10-19T01:33:56;94234.72;;;9.40;84.13
70684;BME280;58263;48.146;11.440;2023-10-19T01:36:23;94239.28;;;9.40;83.97
70684;BME280;58263;48.146;11.440;2023-10-19T01:38:49;94229.38;;;9.40;83.59
70684;BME280;58263;48.146;11.440;2023-10-19T01:41:14;94224.56;;;9.37;83.85
70684;BME280;58263;48.146;11.440;2023-10-19T01:43:44;94219.19;;;9.37;83.17
70684;BME280;58263;48.146;11.440;2023-10-19T01:46:12;94214.88;;;9.31;83.36
70684;BME280;58263;48.146;11.440;2023-10-19T01:48:39;94204.19;;;9.31;83.69
70684;BME280;58263;48.146;11.440;2023-10-19T01:51:09;94207.94;;;9.30;83.92
70684;BME280;58263;48.146;11.440;2023-10-19T01:53:39;94190.28;;;9.29;83.70
70684;BME280;58263;48.146;11.440;2023-10-19T01:56:07;94184.91;;;9.29;83.84
70684;BME280;58263;48.146;11.440;2023-10-19T01:58:35;94207.66;;;9.26;84.35
70684;BME280;58263;48.146;11.440;2023-10-19T02:01:05;94211.13;;;9.27;84.68
70684;BME280;58263;48.146;11.440;2023-10-19T02:03:40;94210.09;;;9.33;84.71
70684;BME280;58263;48.146;11.440;2023-10-19T02:06:10;94221.06;;;9.32;84.79
70684;BME280;58263;48.146;11.440;2023-10-19T02:08:48;94228.03;;;9.33;85.03
70684;BME280;58263;48.146;11.440;2023-10-19T02:11:19;94221.31;;;9.35;84.71
70684;BME280;58263;48.146;11.440;2023-10-19T02:13:47;94217.31;;;9.33;84.78
70684;BME280;58263;48.146;11.440;2023-10-19T02:16:14;94214.38;;;9.34;84.68
70684;BME280;58263;48.146;11.440;2023-10-19T02:18:42;94213.84;;;9.37;84.34
70684;BME280;58263;48.146;11.440;2023-10-19T02:21:08;94209.03;;;9.34;85.03
70684;BME280;58263;48.146;11.440;2023-10-19T02:23:37;94194.28;;;9.32;85.00
70684;BME280;58263;48.146;11.440;2023-10-19T02:26:03;94191.34;;;9.33;85.12
70684;BME280;58263;48.146;11.440;2023-10-19T02:28:29;94194.56;;;9.35;84.76
70684;BME280;58263;48.146;11.440;2023-10-19T02:30:57;94191.38;;;9.38;84.27
70684;BME280;58263;48.146;11.440;2023-10-19T02:33:25;94194.06;;;9.38;84.29
70684;BME280;58263;48.146;11.440;2023-10-19T02:35:51;94189.78;;;9.37;84.48
70684;BME280;58263;48.146;11.440;2023-10-19T02:38:17;94190.81;;;9.36;84.70
70684;BME280;58263;48.146;11.440;2023-10-19T02:40:42;94186.28;;;9.37;84.63
70684;BME280;58263;48.146;11.440;2023-10-19T02:43:07;94188.16;;;9.36;84.73
70684;BME280;58263;48.146;11.440;2023-10-19T02:45:34;94190.81;;;9.36;84.48
70684;BME280;58263;48.146;11.440;2023-10-19T02:47:59;94177.44;;;9.36;84.69
70684;BME280;58263;48.146;11.440;2023-10-19T02:50:24;94178.00;;;9.38;84.42
70684;BME280;58263;48.146;11.440;2023-10-19T02:52:52;94177.19;;;9.38;84.85
70684;BME280;58263;48.146;11.440;2023-10-19T02:55:18;94176.38;;;9.37;84.53
70684;BME280;58263;48.146;11.440;2023-10-19T02:57:48;94171.84;;;9.38;84.31
70684;BME280;58263;48.146;11.440;2023-10-19T03:00:13;94168.09;;;9.39;84.10
70684;BME280;58263;48.146;11.440;2023-10-19T03:02:40;94165.69;;;9.37;84.30
70684;BME280;58263;48.146;11.440;2023-10-19T03:05:06;94163.28;;;9.36;84.28
70684;BME280;58263;48.146;11.440;2023-10-19T03:07:39;94156.88;;;9.37;84.30
70684;BME280;58263;48.146;11.440;2023-10-19T03:10:06;94149.06;;;9.35;84.21
70684;BME280;58263;48.146;11.440;2023-10-19T03:12:31;94150.16;;;9.34;84.28
70684;BME280;58263;48.146;11.440;2023-10-19T03:14:58;94140.78;;;9.32;84.31
70684;BME280;58263;48.146;11.440;2023-10-19T03:17:25;94144.81;;;9.34;84.44
70684;BME280;58263;48.146;11.440;2023-10-19T03:19:51;94137.56;;;9.35;84.44
70684;BME280;58263;48.146;11.440;2023-10-19T03:22:17;94139.47;;;9.34;84.68
70684;BME280;58263;48.146;11.440;2023-10-19T03:24:44;94135.16;;;9.28;84.50
70684;BME280;58263;48.146;11.440;2023-10-19T03:27:12;94134.59;;;9.31;84.41
70684;BME280;58263;48.146;11.440;2023-10-19T03:29:41;94139.16;;;9.30;84.58
70684;BME280;58263;48.146;11.440;2023-10-19T03:32:10;94123.13;;;9.30;84.64
70684;BME280;58263;48.146;11.440;2023-10-19T03:34:37;94132.19;;;9.29;84.98
70684;BME280;58263;48.146;11.440;2023-10-19T03:37:02;94127.13;;;9.28;84.68
70684;BME280;58263;48.146;11.440;2023-10-19T03:39:33;94119.09;;;9.28;84.85
70684;BME280;58263;48.146;11.440;2023-10-19T03:41:59;94126.59;;;9.26;85.27
70684;BME280;58263;48.146;11.440;2023-10-19T03:44:24;94126.59;;;9.26;85.12
70684;BME280;58263;48.146;11.440;2023-10-19T03:46:53;94124.44;;;9.28;85.39
70684;BME280;58263;48.146;11.440;2023-10-19T03:49:21;94125.00;;;9.30;85.19
70684;BME280;58263;48.146;11.440;2023-10-19T03:51:48;94129.78;;;9.28;85.70
70684;BME280;58263;48.146;11.440;2023-10-19T03:54:48;94130.63;;;9.28;85.62
70684;BME280;58263;48.146;11.440;2023-10-19T03:57:16;94129.25;;;9.31;85.21
70684;BME280;58263;48.146;11.440;2023-10-19T03:59:45;94124.72;;;9.32;85.48
70684;BME280;58263;48.146;11.440;2023-10-19T04:02:11;94128.75;;;9.34;85.58
70684;BME280;58263;48.146;11.440;2023-10-19T04:04:43;94128.75;;;9.34;85.93
70684;BME280;58263;48.146;11.440;2023-10-19T04:07:12;94129.28;;;9.36;86.14
70684;BME280;58263;48.146;11.440;2023-10-19T04:09:49;94128.75;;;9.39;85.82
70684;BME280;58263;48.146;11.440;2023-10-19T04:12:30;94123.16;;;9.41;86.11
70684;BME280;58263;48.146;11.440;2023-10-19T04:14:56;94125.56;;;9.42;85.89
70684;BME280;58263;48.146;11.440;2023-10-19T04:17:22;94124.47;;;9.43;85.81
70684;BME280;58263;48.146;11.440;2023-10-19T04:19:50;94113.53;;;9.45;86.13
70684;BME280;58263;48.146;11.440;2023-10-19T04:22:17;94103.91;;;9.44;86.89
70684;BME280;58263;48.146;11.440;2023-10-19T04:24:52;94108.97;;;9.45;86.82
70684;BME280;58263;48.146;11.440;2023-10-19T04:27:18;94107.91;;;9.46;86.63
70684;BME280;58263;48.146;11.440;2023-10-19T04:29:48;94105.25;;;9.52;86.32
70684;BME280;58263;48.146;11.440;2023-10-19T04:32:15;94102.59;;;9.52;86.61
70684;BME280;58263;48.146;11.440;2023-10-19T04:34:40;94106.56;;;9.54;86.37
70684;BME280;58263;48.146;11.440;2023-10-19T04:37:05;94094.28;;;9.53;86.63
70684;BME280;58263;48.146;11.440;2023-10-19T04:39:32;94101.50;;;9.53;86.56
70684;BME280;58263;48.146;11.440;2023-10-19T04:41:57;94093.47;;;9.53;86.90
70684;BME280;58263;48.146;11.440;2023-10-19T04:44:22;94088.94;;;9.53;87.01
70684;BME280;58263;48.146;11.440;2023-10-19T04:46:48;94095.06;;;9.54;87.03
70684;BME280;58263;48.146;11.440;2023-10-19T04:49:13;94097.75;;;9.48;87.01
70684;BME280;58263;48.146;11.440;2023-10-19T04:51:39;94098.00;;;9.47;86.77
70684;BME280;58263;48.146;11.440;2023-10-19T04:54:05;94103.09;;;9.48;87.13
70684;BME280;58263;48.146;11.440;2023-10-19T04:56:33;94095.63;;;9.51;87.10
70684;BME280;58263;48.146;11.440;2023-10-19T04:58:58;94101.75;;;9.51;87.32
70684;BME280;58263;48.146;11.440;2023-10-19T05:01:24;94109.78;;;9.51;87.51
70684;BME280;58263;48.146;11.440;2023-10-19T05:03:49;94095.34;;;9.52;87.03
70684;BME280;58263;48.146;11.440;2023-10-19T05:06:14;94098.31;;;9.56;87.37
70684;BME280;58263;48.146;11.440;2023-10-19T05:08:40;94095.09;;;9.59;87.49
70684;BME280;58263;48.146;11.440;2023-10-19T05:11:05;94090.00;;;9.62;87.18
70684;BME280;58263;48.146;11.440;2023-10-19T05:13:31;94083.31;;;9.65;87.06
70684;BME280;58263;48.146;11.440;2023-10-19T05:15:58;94087.59;;;9.66;86.57
70684;BME280;58263;48.146;11.440;2023-10-19T05:18:25;94083.88;;;9.67;86.52
70684;BME280;58263;48.146;11.440;2023-10-19T05:20:51;94092.94;;;9.66;86.43
70684;BME280;58263;48.146;11.440;2023-10-19T05:23:23;94103.38;;;9.62;87.03
70684;BME280;58263;48.146;11.440;2023-10-19T05:25:49;94094.28;;;9.63;86.80
70684;BME280;58263;48.146;11.440;2023-10-19T05:28:15;94091.88;;;9.62;86.70
70684;BME280;58263;48.146;11.440;2023-10-19T05:30:40;94085.47;;;9.63;86.59
70684;BME280;58263;48.146;11.440;2023-10-19T05:33:06;94078.50;;;9.62;86.85
70684;BME280;58263;48.146;11.440;2023-10-19T05:35:31;94071.00;;;9.64;86.76
70684;BME280;58263;48.146;11.440;2023-10-19T05:38:00;94073.94;;;9.62;86.63
70684;BME280;58263;48.146;11.440;2023-10-19T05:40:26;94067.50;;;9.63;86.84
70684;BME280;58263;48.146;11.440;2023-10-19T05:42:56;94065.09;;;9.62;86.72
70684;BME280;58263;48.146;11.440;2023-10-19T05:45:22;94067.50;;;9.63;86.68
70684;BME280;58263;48.146;11.440;2023-10-19T05:47:47;94066.97;;;9.67;86.46
70684;BME280;58263;48.146;11.440;2023-10-19T05:50:12;94065.66;;;9.64;86.83
70684;BME280;58263;48.146;11.440;2023-10-19T05:52:43;94059.22;;;9.65;86.22
70684;BME280;58263;48.146;11.440;2023-10-19T05:55:09;94066.44;;;9.64;86.55
70684;BME280;58263;48.146;11.440;2023-10-19T05:57:37;94062.69;;;9.60;86.72
70684;BME280;58263;48.146;11.440;2023-10-19T06:00:09;94067.78;;;9.62;86.51
70684;BME280;58263;48.146;11.440;2023-10-19T06:02:38;94063.50;;;9.61;86.42
70684;BME280;58263;48.146;11.440;2023-10-19T06:05:04;94073.13;;;9.62;86.54
70684;BME280;58263;48.146;11.440;2023-10-19T06:07:30;94069.41;;;9.63;86.79
70684;BME280;58263;48.146;11.440;2023-10-19T06:09:56;94073.69;;;9.64;87.27
70684;BME280;58263;48.146;11.440;2023-10-19T06:12:21;94068.34;;;9.64;87.08
70684;BME280;58263;48.146;11.440;2023-10-19T06:14:46;94077.69;;;9.67;87.35
70684;BME280;58263;48.146;11.440;2023-10-19T06:17:11;94076.34;;;9.69;87.67
70684;BME280;58263;48.146;11.440;2023-10-19T06:19:44;94075.84;;;9.72;87.53
70684;BME280;58263;48.146;11.440;2023-10-19T06:22:11;94075.31;;;9.75;87.78
70684;BME280;58263;48.146;11.440;2023-10-19T06:24:37;94076.91;;;9.76;87.31
70684;BME280;58263;48.146;11.440;2023-10-19T06:27:02;94076.38;;;9.79;87.71
70684;BME280;58263;48.146;11.440;2023-10-19T06:29:29;94074.78;;;9.84;87.74
70684;BME280;58263;48.146;11.440;2023-10-19T06:31:54;94066.19;;;9.87;87.89
70684;BME280;58263;48.146;11.440;2023-10-19T06:34:19;94068.34;;;9.90;87.89
70684;BME280;58263;48.146;11.440;2023-10-19T06:36:45;94066.19;;;9.92;88.21
70684;BME280;58263;48.146;11.440;2023-10-19T06:39:11;94061.66;;;9.97;88.14
70684;BME280;58263;48.146;11.440;2023-10-19T06:41:38;94060.31;;;10.00;88.36
70684;BME280;58263;48.146;11.440;2023-10-19T06:44:06;94056.28;;;10.03;88.41
70684;BME280;58263;48.146;11.440;2023-10-19T06:46:32;94050.13;;;10.07;88.95
70684;BME280;58263;48.146;11.440;2023-10-19T06:48:57;94050.13;;;10.12;88.95
70684;BME280;58263;48.146;11.440;2023-10-19T06:51:25;94054.69;;;10.17;89.05
70684;BME280;58263;48.146;11.440;2023-10-19T06:53:54;94045.81;;;10.22;88.87
70684;BME280;58263;48.146;11.440;2023-10-19T06:56:21;94053.88;;;10.27;88.83
70684;BME280;58263;48.146;11.440;2023-10-19T06:58:46;94047.41;;;10.33;88.66
70684;BME280;58263;48.146;11.440;2023-10-19T07:01:11;94050.13;;;10.38;88.71
70684;BME280;58263;48.146;11.440;2023-10-19T07:03:38;94058.94;;;10.44;88.29
70684;BME280;58263;48.146;11.440;2023-10-19T07:06:03;94053.31;;;10.51;88.30
70684;BME280;58263;48.146;11.440;2023-10-19T07:08:29;94047.66;;;10.57;88.08
70684;BME280;58263;48.146;11.440;2023-10-19T07:10:55;94055.41;;;10.64;88.59
70684;BME280;58263;48.146;11.440;2023-10-19T07:13:20;94051.63;;;10.70;88.46
70684;BME280;58263;48.146;11.440;2023-10-19T07:15:47;94055.63;;;10.78;88.45
70684;BME280;58263;48.146;11.440;2023-10-19T07:18:14;94048.91;;;10.86;88.30
70684;BME280;58263;48.146;11.440;2023-10-19T07:20:40;94058.53;;;10.92;88.71
70684;BME280;58263;48.146;11.440;2023-10-19T07:23:07;94063.59;;;10.98;89.52
70684;BME280;58263;48.146;11.440;2023-10-19T07:25:37;94065.19;;;11.05;89.46
70684;BME280;58263;48.146;11.440;2023-10-19T07:28:12;94059.53;;;11.11;88.76
70684;BME280;58263;48.146;11.440;2023-10-19T07:30:41;94065.13;;;11.20;89.18
70684;BME280;58263;48.146;11.440;2023-10-19T07:33:10;94066.44;;;11.28;89.30
70684;BME280;58263;48.146;11.440;2023-10-19T07:35:42;94053.50;;;11.35;89.00
70684;BME280;58263;48.146;11.440;2023-10-19T07:38:09;94057.78;;;11.41;88.43
70684;BME280;58263;48.146;11.440;2023-10-19T07:40:35;94050.22;;;11.48;88.46
70684;BME280;58263;48.146;11.440;2023-10-19T07:43:01;94047.22;;;11.55;88.24
70684;BME280;58263;48.146;11.440;2023-10-19T07:45:27;94034.03;;;11.59;88.20
70684;BME280;58263;48.146;11.440;2023-10-19T07:47:52;94030.50;;;11.63;87.97
70684;BME280;58263;48.146;11.440;2023-10-19T07:50:18;94029.38;;;11.70;88.12
70684;BME280;58263;48.146;11.440;2023-10-19T07:52:50;94036.06;;;11.77;88.48
70684;BME280;58263;48.146;11.440;2023-10-19T07:55:17;94024.19;;;11.83;88.79
70684;BME280;58263;48.146;11.440;2023-10-19T07:57:43;94033.81;;;11.90;88.84
70684;BME280;58263;48.146;11.440;2023-10-19T08:00:09;94038.09;;;11.96;89.15
70684;BME280;58263;48.146;11.440;2023-10-19T08:02:36;94040.72;;;12.01;88.99
70684;BME280;58263;48.146;11.440;2023-10-19T08:05:03;94035.59;;;12.05;88.86
70684;BME280;58263;48.146;11.440;2023-10-19T08:07:29;94039.03;;;12.10;89.22
70684;BME280;58263;48.146;11.440;2023-10-19T08:09:55;94023.41;;;12.17;89.19
70684;BME280;58263;48.146;11.440;2023-10-19T08:12:24;94023.88;;;12.25;89.19
70684;BME280;58263;48.146;11.440;2023-10-19T08:14:49;94022.72;;;12.31;89.04
70684;BME280;58263;48.146;11.440;2023-10-19T08:17:15;94024.78;;;12.39;89.33
70684;BME280;58263;48.146;11.440;2023-10-19T08:19:40;94027.13;;;12.46;89.35
70684;BME280;58263;48.146;11.440;2023-10-19T08:22:06;94020.34;;;12.54;89.73
70684;BME280;58263;48.146;11.440;2023-10-19T08:24:31;94018.09;;;12.61;89.18
70684;BME280;58263;48.146;11.440;2023-10-19T08:27:00;94022.84;;;12.69;89.35
70684;BME280;58263;48.146;11.440;2023-10-19T08:29:25;94012.56;;;12.76;89.47
70684;BME280;58263;48.146;11.440;2023-10-19T08:31:51;94020.81;;;12.85;89.54
70684;BME280;58263;48.146;11.440;2023-10-19T08:34:16;94013.47;;;12.91;89.15
70684;BME280;58263;48.146;11.440;2023-10-19T08:36:42;94016.09;;;12.96;88.60
70684;BME280;58263;48.146;11.440;2023-10-19T08:39:09;94016.53;;;13.03;88.68
70684;BME280;58263;48.146;11.440;2023-10-19T08:41:37;94014.88;;;13.07;88.42
70684;BME280;58263;48.146;11.440;2023-10-19T08:44:04;94011.81;;;13.14;88.11
70684;BME280;58263;48.146;11.440;2023-10-19T08:46:37;94015.25;;;13.19;88.39
70684;BME280;58263;48.146;11.440;2023-10-19T08:49:03;94012.19;;;13.26;88.05
70684;BME280;58263;48.146;11.440;2023-10-19T08:51:29;94018.31;;;13.32;87.87
70684;BME280;58263;48.146;11.440;2023-10-19T08:53:54;94014.78;;;13.37;88.05
70684;BME280;58263;48.146;11.440;2023-10-19T08:56:19;94005.81;;;13.41;87.86
70684;BME280;58263;48.146;11.440;2023-10-19T08:58:49;94019.22;;;13.46;87.63
70684;BME280;58263;48.146;11.440;2023-10-19T09:01:18;94016.47;;;13.51;87.48
70684;BME280;58263;48.146;11.440;2023-10-19T09:03:44;94017.19;;;13.57;87.59
70684;BME280;58263;48.146;11.440;2023-10-19T09:06:12;94015.50;;;13.61;87.49
70684;BME280;58263;48.146;11.440;2023-10-19T09:08:38;94019.53;;;13.64;87.23
70684;BME280;58263;48.146;11.440;2023-10-19T09:11:06;94013.03;;;13.65;87.61
70684;BME280;58263;48.146;11.440;2023-10-19T09:13:43;94008.69;;;13.69;87.86
70684;BME280;58263;48.146;11.440;2023-10-19T09:16:12;94004.00;;;13.75;88.10
70684;BME280;58263;48.146;11.440;2023-10-19T09:18:37;94003.94;;;13.80;88.08
70684;BME280;58263;48.146;11.440;2023-10-19T09:21:03;94012.72;;;13.85;88.37
70684;BME280;58263;48.146;11.440;2023-10-19T09:23:32;94001.88;;;13.91;89.30
70684;BME280;58263;48.146;11.440;2023-10-19T09:25:59;94009.84;;;13.96;89.34
70684;BME280;58263;48.146;11.440;2023-10-19T09:28:28;94003.91;;;13.99;89.36
70684;BME280;58263;48.146;11.440;2023-10-19T09:30:54;94006.47;;;14.04;89.01
70684;BME280;58263;48.146;11.440;2023-10-19T09:33:23;94003.69;;;14.09;89.17
70684;BME280;58263;48.146;11.440;2023-10-19T09:35:50;94005.72;;;14.17;89.01
70684;BME280;58263;48.146;11.440;2023-10-19T09:38:21;94010.94;;;14.28;88.85
70684;BME280;58263;48.146;11.440;2023-10-19T09:40:50;94000.25;;;14.36;89.02
70684;BME280;58263;48.146;11.440;2023-10-19T09:43:22;93996.56;;;14.46;88.98
70684;BME280;58263;48.146;11.440;2023-10-19T09:45:51;93985.59;;;14.57;88.67
70684;BME280;58263;48.146;11.440;2023-10-19T09:48:19;93986.41;;;14.71;88.38
70684;BME280;58263;48.146;11.440;2023-10-19T09:50:54;93988.84;;;14.86;88.11
70684;BME280;58263;48.146;11.440;2023-10-19T09:53:26;93994.44;;;15.04;87.93
70684;BME280;58263;48.146;11.440;2023-10-19T09:55:56;93983.97;;;15.25;86.88
70684;BME280;58263;48.146;11.440;2023-10-19T09:58:26;93986.22;;;15.46;87.48
70684;BME280;58263;48.146;11.440;2023-10-19T10:00:54;93975.13;;;15.70;86.54
70684;BME280;58263;48.146;11.440;2023-10-19T10:06:07;93950.63;;;16.12;83.90
70684;BME280;58263;48.146;11.440;2023-10-19T10:08:35;93947.34;;;16.23;82.67
70684;BME280;58263;48.146;11.440;2023-10-19T10:11:14;93953.91;;;16.31;81.95
70684;BME280;58263;48.146;11.440;2023-10-19T10:13:42;93967.47;;;16.40;81.68
70684;BME280;58263;48.146;11.440;2023-10-19T10:16:07;93969.38;;;16.39;81.70
70684;BME280;58263;48.146;11.440;2023-10-19T10:18:34;93971.31;;;16.39;80.82
70684;BME280;58263;48.146;11.440;2023-10-19T10:23:40;93971.44;;;16.34;80.15
70684;BME280;58263;48.146;11.440;2023-10-19T10:26:06;93960.72;;;16.29;79.68
70684;BME280;58263;48.146;11.440;2023-10-19T10:28:33;93955.63;;;16.27;79.75
70684;BME280;58263;48.146;11.440;2023-10-19T10:31:13;93958.34;;;16.27;79.36
70684;BME280;58263;48.146;11.440;2023-10-19T10:33:52;93949.91;;;16.29;80.42
70684;BME280;58263;48.146;11.440;2023-10-19T10:36:20;93950.88;;;16.33;80.41
70684;BME280;58263;48.146;11.440;2023-10-19T10:38:47;93948.38;;;16.36;80.23
70684;BME280;58263;48.146;11.440;2023-10-19T10:41:19;93949.03;;;16.42;80.29
70684;BME280;58263;48.146;11.440;2023-10-19T10:43:49;93941.09;;;16.46;79.84
70684;BME280;58263;48.146;11.440;2023-10-19T10:46:15;93934.72;;;16.50;79.60
70684;BME280;58263;48.146;11.440;2023-10-19T10:48:42;93928.06;;;16.56;79.43
70684;BME280;58263;48.146;11.440;2023-10-19T10:51:18;93928.22;;;16.60;78.55
70684;BME280;58263;48.146;11.440;2023-10-19T10:53:47;93925.69;;;16.64;78.23
70684;BME280;58263;48.146;11.440;2023-10-19T10:56:13;93927.78;;;16.67;78.05
70684;BME280;58263;48.146;11.440;2023-10-19T10:58:39;93921.72;;;16.70;77.78
70684;BME280;58263;48.146;11.440;2023-10-19T11:01:05;93920.47;;;16.76;77.87
70684;BME280;58263;48.146;11.440;2023-10-19T11:03:31;93911.56;;;16.84;77.30
70684;BME280;58263;48.146;11.440;2023-10-19T11:06:03;93908.91;;;16.93;76.69
70684;BME280;58263;48.146;11.440;2023-10-19T11:08:29;93914.69;;;17.00;76.65
70684;BME280;58263;48.146;11.440;2023-10-19T11:11:02;93926.16;;;17.06;76.13
70684;BME280;58263;48.146;11.440;2023-10-19T11:13:29;93924.41;;;17.10;75.58
70684;BME280;58263;48.146;11.440;2023-10-19T11:15:55;93918.34;;;17.13;75.21
70684;BME280;58263;48.146;11.440;2023-10-19T11:18:30;93907.69;;;17.17;75.15
70684;BME280;58263;48.146;11.440;2023-10-19T11:20:56;93914.06;;;17.21;75.54
70684;BME280;58263;48.146;11.440;2023-10-19T11:23:49;93901.78;;;17.23;75.15
70684;BME280;58263;48.146;11.440;2023-10-19T11:26:22;93893.16;;;17.21;75.24
70684;BME280;58263;48.146;11.440;2023-10-19T11:28:57;93893.16;;;17.21;74.13
70684;BME280;58263;48.146;11.440;2023-10-19T11:31:23;93880.59;;;17.17;74.12
70684;BME280;58263;48.146;11.440;2023-10-19T11:33:52;93863.50;;;17.16;74.60
70684;BME280;58263;48.146;11.440;2023-10-19T11:36:19;93859.69;;;17.17;74.65
70684;BME280;58263;48.146;11.440;2023-10-19T11:38:46;93858.75;;;17.22;74.17
70684;BME280;58263;48.146;11.440;2023-10-19T11:41:13;93865.59;;;17.28;74.69
70684;BME280;58263;48.146;11.440;2023-10-19T11:43:39;93858.59;;;17.36;74.84
70684;BME280;58263;48.146;11.440;2023-10-19T11:46:05;93845.00;;;17.45;74.99
70684;BME280;58263;48.146;11.440;2023-10-19T11:48:33;93826.81;;;17.54;75.33
70684;BME280;58263;48.146;11.440;2023-10-19T11:50:59;93821.53;;;17.66;74.93
70684;BME280;58263;48.146;11.440;2023-10-19T11:53:25;93839.03;;;17.78;73.28
70684;BME280;58263;48.146;11.440;2023-10-19T11:55:50;93838.53;;;17.84;72.82
70684;BME280;58263;48.146;11.440;2023-10-19T11:58:17;93835.53;;;17.95;72.07
70684;BME280;58263;48.146;11.440;2023-10-19T12:00:42;93821.59;;;18.05;72.19
70684;BME280;58263;48.146;11.440;2023-10-19T12:03:09;93833.19;;;18.23;71.75
70684;BME280;58263;48.146;11.440;2023-10-19T12:05:35;93831.09;;;18.58;71.29
70684;BME280;58263;48.146;11.440;2023-10-19T12:08:02;93831.66;;;19.15;68.66
70684;BME280;58263;48.146;11.440;2023-10-19T12:10:27;93832.66;;;19.32;67.31
70684;BME280;58263;48.146;11.440;2023-10-19T12:13:02;93829.72;;;19.37;66.34
70684;BME280;58263;48.146;11.440;2023-10-19T12:15:29;93832.00;;;19.35;66.28
70684;BME280;58263;48.146;11.440;2023-10-19T12:17:55;93826.28;;;19.28;64.78
70684;BME280;58263;48.146;11.440;2023-10-19T12:20:20;93825.13;;;19.16;64.35
70684;BME280;58263;48.146;11.440;2023-10-19T12:22:47;93815.69;;;19.14;64.53
70684;BME280;58263;48.146;11.440;2023-10-19T12:25:13;93817.28;;;19.15;64.76
70684;BME280;58263;48.146;11.440;2023-10-19T12:27:38;93814.31;;;19.07;65.06
70684;BME280;58263;48.146;11.440;2023-10-19T12:30:04;93806.03;;;19.04;65.03
70684;BME280;58263;48.146;11.440;2023-10-19T12:32:42;93793.47;;;18.99;65.08
70684;BME280;58263;48.146;11.440;2023-10-19T12:35:07;93782.03;;;19.06;64.56
70684;BME280;58263;48.146;11.440;2023-10-19T12:37:37;93787.97;;;19.20;65.57
70684;BME280;58263;48.146;11.440;2023-10-19T12:40:11;93781.34;;;19.30;65.31
70684;BME280;58263;48.146;11.440;2023-10-19T12:42:51;93778.28;;;19.32;64.56
70684;BME280;58263;48.146;11.440;2023-10-19T12:45:17;93777.50;;;19.31;64.82
70684;BME280;58263;48.146;11.440;2023-10-19T12:47:44;93781.13;;;19.35;64.64
70684;BME280;58263;48.146;11.440;2023-10-19T12:50:10;93774.72;;;19.52;64.19
70684;BME280;58263;48.146;11.440;2023-10-19T12:52:38;93771.41;;;19.80;62.94
70684;BME280;58263;48.146;11.440;2023-10-19T12:55:05;93774.13;;;19.80;62.07
70684;BME280;58263;48.146;11.440;2023-10-19T12:57:33;93775.91;;;19.76;62.78
70684;BME280;58263;48.146;11.440;2023-10-19T12:59:59;93776.69;;;19.76;62.06
70684;BME280;58263;48.146;11.440;2023-10-19T13:02:31;93775.78;;;19.72;62.40
70684;BME280;58263;48.146;11.440;2023-10-19T13:04:57;93777.25;;;19.70;62.47